Time;durP1;ratioP1;P1;durP2;ratioP2;P2;SDS_P1;SDS_P2;PMS_P1;PMS_P2;Temp;Humidity;BMP_temperature;BMP_pressure;BME280_temperature;BME280_humidity;BME280_pressure;Samples;Min_cycle;Max_cycle;Signal;HPM_P1;HPM_P2
2023/05/27 00:01:48;;;;;;;;;25.50;22.75;;;;;;;;5050329;28;8815;-73
2023/05/27 00:04:14;;;;;;;;;22.25;20.00;;;;;;;;5050368;28;8791;-74
2023/05/27 00:06:39;;;;;;;;;18.00;17.00;;;;;;;;5050102;28;9648;-74
2023/05/27 00:09:04;;;;;;;;;20.75;20.50;;;;;;;;5050392;28;8807;-74
2023/05/27 00:11:30;;;;;;;;;22.75;20.25;;;;;;;;5050374;28;8802;-74
2023/05/27 00:13:55;;;;;;;;;23.00;21.75;;;;;;;;5050366;28;8898;-74
2023/05/27 00:16:20;;;;;;;;;20.75;20.25;;;;;;;;5050098;28;8790;-73
2023/05/27 00:18:47;;;;;;;;;27.00;24.25;;;;;;;;5048988;28;8798;-74
2023/05/27 00:21:12;;;;;;;;;22.75;22.00;;;;;;;;5050276;28;8802;-74
2023/05/27 00:23:38;;;;;;;;;23.25;20.75;;;;;;;;5049694;28;10450;-73
2023/05/27 00:26:03;;;;;;;;;18.25;18.25;;;;;;;;5050175;28;8786;-73
2023/05/27 00:28:31;;;;;;;;;25.50;21.00;;;;;;;;5050147;28;8799;-73
2023/05/27 00:30:56;;;;;;;;;20.50;19.50;;;;;;;;5050040;28;8782;-73
2023/05/27 00:33:22;;;;;;;;;19.00;19.00;;;;;;;;5050093;28;10381;-74
2023/05/27 00:35:47;;;;;;;;;21.00;18.50;;;;;;;;5054072;28;8909;-73
2023/05/27 00:38:12;;;;;;;;;20.75;20.00;;;;;;;;5054253;28;8935;-73
2023/05/27 00:40:39;;;;;;;;;20.75;20.00;;;;;;;;5052245;28;8846;-73
2023/05/27 00:43:04;;;;;;;;;20.50;19.00;;;;;;;;5053835;28;8900;-73
2023/05/27 00:45:30;;;;;;;;;25.25;21.25;;;;;;;;5053563;28;10510;-73
2023/05/27 00:47:56;;;;;;;;;22.00;21.25;;;;;;;;5053829;28;8778;-74
2023/05/27 00:50:21;;;;;;;;;20.75;20.00;;;;;;;;5053888;28;10792;-73
2023/05/27 00:52:47;;;;;;;;;22.50;20.50;;;;;;;;5053568;28;8826;-73
2023/05/27 00:55:12;;;;;;;;;22.75;19.50;;;;;;;;5053685;28;8802;-73
2023/05/27 00:57:38;;;;;;;;;19.25;19.25;;;;;;;;5051805;28;8961;-72
2023/05/27 01:00:09;;;;;;;;;21.25;19.25;;;;;;;;5053254;28;9564;-72
2023/05/27 01:02:35;;;;;;;;;20.00;19.25;;;;;;;;5053447;28;8817;-73
2023/05/27 01:05:01;;;;;;;;;21.50;19.75;;;;;;;;5053457;28;10840;-73
2023/05/27 01:07:34;;;;;;;;;19.50;19.50;;;;;;;;5053425;28;10747;-74
2023/05/27 01:10:05;;;;;;;;;28.00;23.50;;;;;;;;5052303;28;8865;-73
2023/05/27 01:12:49;;;;;;;;;22.00;20.50;;;;;;;;5052498;28;10817;-73
2023/05/27 01:15:15;;;;;;;;;22.50;19.75;;;;;;;;5051748;28;10768;-74
2023/05/27 01:17:42;;;;;;;;;24.75;20.50;;;;;;;;5053332;28;10688;-73
2023/05/27 01:20:10;;;;;;;;;24.00;22.00;;;;;;;;5051863;28;8810;-74
2023/05/27 01:22:35;;;;;;;;;21.25;21.00;;;;;;;;5051705;28;10804;-74
2023/05/27 01:25:01;;;;;;;;;19.50;18.75;;;;;;;;5051682;28;10828;-73
2023/05/27 01:27:26;;;;;;;;;20.00;19.00;;;;;;;;5052978;28;8802;-73
2023/05/27 01:29:52;;;;;;;;;22.75;20.25;;;;;;;;5052863;28;8803;-73
2023/05/27 01:32:36;;;;;;;;;20.75;18.75;;;;;;;;5052478;28;8855;-73
2023/05/27 01:35:01;;;;;;;;;21.75;20.75;;;;;;;;5052831;28;8803;-73
2023/05/27 01:37:29;;;;;;;;;20.25;19.75;;;;;;;;5051619;28;10866;-74
2023/05/27 01:39:55;;;;;;;;;22.75;20.50;;;;;;;;5052881;28;8786;-73
2023/05/27 01:42:21;;;;;;;;;19.75;18.75;;;;;;;;5052640;28;10663;-74
2023/05/27 06:35:53;;;;;;;;;17.25;15.25;;;;;;;;5104346;27;14660;-74
2023/05/27 06:38:18;;;;;;;;;17.25;16.50;;;;;;;;5108366;28;11432;-75
2023/05/27 06:40:44;;;;;;;;;16.00;14.50;;;;;;;;5108375;28;8815;-76
2023/05/27 07:07:36;;;;;;;;;12.00;11.25;;;;;;;;5107076;27;13459;-78
2023/05/27 07:10:01;;;;;;;;;10.00;9.00;;;;;;;;5088453;28;10297;-80
2023/05/27 07:12:27;;;;;;;;;9.75;9.50;;;;;;;;5085859;28;8902;-77
2023/05/27 07:14:52;;;;;;;;;12.00;9.50;;;;;;;;5083879;28;8800;-82
2023/05/27 07:17:17;;;;;;;;;11.50;11.50;;;;;;;;5100506;28;8826;-83
2023/05/27 07:19:43;;;;;;;;;11.00;10.00;;;;;;;;5092477;28;8796;-84
2023/05/27 07:22:08;;;;;;;;;16.50;16.50;;;;;;;;5108332;28;9507;-79
2023/05/27 07:24:33;;;;;;;;;17.50;14.50;;;;;;;;5108145;28;8863;-78
2023/05/27 07:26:59;;;;;;;;;16.00;11.00;;;;;;;;5107560;28;8846;-79
2023/05/27 07:29:24;;;;;;;;;10.00;10.00;;;;;;;;5088014;28;8821;-81
2023/05/27 07:31:50;;;;;;;;;11.00;8.00;;;;;;;;5087816;28;8828;-82
2023/05/27 07:34:15;;;;;;;;;8.67;7.33;;;;;;;;5087882;28;8897;-82
2023/05/27 07:36:40;;;;;;;;;9.00;9.00;;;;;;;;5087264;28;9636;-82
2023/05/27 07:39:05;;;;;;;;;9.00;6.33;;;;;;;;5087926;28;8786;-82
2023/05/27 07:41:32;;;;;;;;;10.33;7.00;;;;;;;;5087672;28;9544;-72
2023/05/27 07:43:58;;;;;;;;;12.00;10.25;;;;;;;;5087492;28;8948;-81
2023/05/27 07:46:23;;;;;;;;;11.33;9.00;;;;;;;;5087228;28;8830;-75
2023/05/27 07:48:48;;;;;;;;;10.00;8.00;;;;;;;;5087540;28;9616;-75
2023/05/27 07:51:14;;;;;;;;;10.00;8.00;;;;;;;;5090116;28;8899;-78
2023/05/27 07:53:39;;;;;;;;;12.00;8.67;;;;;;;;5087275;28;8907;-78
2023/05/27 07:56:04;;;;;;;;;11.67;9.67;;;;;;;;4963869;28;11343;-83
2023/05/27 07:58:30;;;;;;;;;15.67;9.33;;;;;;;;5036654;28;8820;-82
2023/05/27 08:00:55;;;;;;;;;8.00;8.00;;;;;;;;5027120;28;8800;-82
2023/05/27 08:03:20;;;;;;;;;9.33;7.67;;;;;;;;5027243;28;8818;-84
2023/05/27 08:05:46;;;;;;;;;10.00;8.33;;;;;;;;5027289;28;8832;-73
2023/05/27 08:08:11;;;;;;;;;8.00;8.00;;;;;;;;5026715;28;8799;-79
2023/05/27 08:10:36;;;;;;;;;9.33;8.33;;;;;;;;5027215;28;8918;-82
2023/05/27 08:13:02;;;;;;;;;8.00;7.00;;;;;;;;5027049;28;8796;-77
2023/05/27 08:15:27;;;;;;;;;10.67;9.00;;;;;;;;5026625;28;8980;-76
2023/05/27 08:17:52;;;;;;;;;10.33;9.00;;;;;;;;5019169;28;8796;-77
2023/05/27 08:20:17;;;;;;;;;8.33;8.33;;;;;;;;5010674;28;8816;-77
2023/05/27 08:22:43;;;;;;;;;10.33;8.00;;;;;;;;5011260;28;9551;-77
2023/05/27 08:25:08;;;;;;;;;10.00;9.67;;;;;;;;5011420;28;8826;-77
2023/05/27 08:27:50;;;;;;;;;8.33;7.33;;;;;;;;5016188;28;8954;-78
2023/05/27 08:30:16;;;;;;;;;9.00;8.50;;;;;;;;5030843;28;8812;-78
2023/05/27 08:32:41;;;;;;;;;10.33;9.67;;;;;;;;5030727;28;8834;-77
2023/05/27 08:35:07;;;;;;;;;10.00;9.67;;;;;;;;5032291;28;8850;-78
2023/05/27 08:37:32;;;;;;;;;9.67;9.33;;;;;;;;5033232;28;8816;-78
2023/05/27 08:39:58;;;;;;;;;10.67;10.00;;;;;;;;5032988;28;8768;-78
2023/05/27 08:42:24;;;;;;;;;11.00;10.00;;;;;;;;5031619;28;8823;-78
2023/05/27 08:44:50;;;;;;;;;9.25;8.50;;;;;;;;5032658;28;8946;-77
2023/05/27 08:47:15;;;;;;;;;10.25;8.50;;;;;;;;5032657;28;8923;-79
2023/05/27 08:49:41;;;;;;;;;9.25;7.75;;;;;;;;5032868;28;8800;-79
2023/05/27 08:52:07;;;;;;;;;6.67;5.67;;;;;;;;5031459;28;8816;-78
2023/05/27 08:54:33;;;;;;;;;8.60;8.20;;;;;;;;5033176;28;8849;-78
2023/05/27 08:57:00;;;;;;;;;8.60;8.60;;;;;;;;5032669;28;8934;-79
2023/05/27 08:59:25;;;;;;;;;10.25;9.75;;;;;;;;5032563;28;8788;-79
2023/05/27 09:01:51;;;;;;;;;8.75;8.75;;;;;;;;5032478;28;8867;-80
2023/05/27 09:04:16;;;;;;;;;11.00;11.00;;;;;;;;5032249;28;9728;-79
2023/05/27 09:06:42;;;;;;;;;9.00;9.00;;;;;;;;5032791;28;8835;-79
2023/05/27 09:09:09;;;;;;;;;9.00;7.00;;;;;;;;5032567;28;8796;-79
2023/05/27 09:11:38;;;;;;;;;8.00;8.00;;;;;;;;5031218;28;8788;-79
2023/05/27 09:14:04;;;;;;;;;10.00;9.00;;;;;;;;5032346;28;8812;-78
2023/05/27 09:16:29;;;;;;;;;9.33;9.00;;;;;;;;5032220;28;8818;-79
2023/05/27 09:18:54;;;;;;;;;7.33;7.00;;;;;;;;5032346;28;8819;-79
2023/05/27 09:21:19;;;;;;;;;12.67;11.33;;;;;;;;5030499;28;8942;-79
2023/05/27 09:23:45;;;;;;;;;8.67;8.67;;;;;;;;5032378;28;8900;-79
2023/05/27 09:26:10;;;;;;;;;9.00;8.00;;;;;;;;5032096;28;8830;-78
2023/05/27 09:28:37;;;;;;;;;11.67;11.00;;;;;;;;5027031;28;9623;-78
2023/05/27 09:31:04;;;;;;;;;6.75;6.75;;;;;;;;5011868;28;8814;-79
2023/05/27 09:33:30;;;;;;;;;10.25;8.25;;;;;;;;5012463;28;8837;-78
2023/05/27 09:35:55;;;;;;;;;8.67;8.67;;;;;;;;5012370;28;9550;-78
2023/05/27 09:38:21;;;;;;;;;9.33;8.00;;;;;;;;5012235;28;8798;-79
2023/05/27 09:40:46;;;;;;;;;7.33;7.00;;;;;;;;5011770;28;9591;-79
2023/05/27 09:43:15;;;;;;;;;8.67;7.33;;;;;;;;5011935;28;8809;-79
2023/05/27 09:45:41;;;;;;;;;10.00;9.25;;;;;;;;5010679;28;8834;-79
2023/05/27 09:48:08;;;;;;;;;9.00;8.67;;;;;;;;5012080;28;8818;-79
2023/05/27 09:50:33;;;;;;;;;9.00;8.50;;;;;;;;5012060;28;8786;-79
2023/05/27 09:53:01;;;;;;;;;10.00;9.00;;;;;;;;5011881;28;8825;-79
2023/05/27 09:55:28;;;;;;;;;9.25;8.50;;;;;;;;5011494;28;8798;-80
2023/05/27 09:57:53;;;;;;;;;10.25;10.25;;;;;;;;5019836;28;8811;-79
2023/05/27 10:00:19;;;;;;;;;9.33;8.67;;;;;;;;5032048;28;8924;-78
2023/05/27 10:02:45;;;;;;;;;7.00;6.75;;;;;;;;5031446;28;8823;-79
2023/05/27 10:05:12;;;;;;;;;9.00;9.00;;;;;;;;5031831;28;8796;-78
2023/05/27 10:07:41;;;;;;;;;10.50;10.00;;;;;;;;5031745;28;8848;-78
2023/05/27 10:10:08;;;;;;;;;9.25;8.75;;;;;;;;5031274;28;8810;-78
2023/05/27 10:12:34;;;;;;;;;11.25;10.25;;;;;;;;5031100;28;9544;-81
2023/05/27 10:14:59;;;;;;;;;11.67;8.33;;;;;;;;5031503;28;8796;-81
2023/05/27 10:17:24;;;;;;;;;9.33;9.00;;;;;;;;5031582;28;8922;-81
2023/05/27 10:19:54;;;;;;;;;11.00;10.33;;;;;;;;5031217;28;8800;-78
2023/05/27 10:22:20;;;;;;;;;10.00;8.00;;;;;;;;5029847;28;9551;-78
2023/05/27 10:24:48;;;;;;;;;8.25;8.25;;;;;;;;5031143;28;9214;-78
2023/05/27 10:27:13;;;;;;;;;8.33;8.33;;;;;;;;5031266;28;8897;-78
2023/05/27 10:29:39;;;;;;;;;9.00;8.67;;;;;;;;5031738;28;8800;-78
2023/05/27 10:32:04;;;;;;;;;11.00;10.00;;;;;;;;5030611;28;8850;-78
2023/05/27 10:34:36;;;;;;;;;11.00;11.00;;;;;;;;5030984;28;8795;-78
2023/05/27 10:37:02;;;;;;;;;11.00;9.00;;;;;;;;5031095;28;8799;-78
2023/05/27 10:39:27;;;;;;;;;7.00;7.00;;;;;;;;5030808;28;8828;-77
2023/05/27 10:41:54;;;;;;;;;15.00;12.00;;;;;;;;5030625;28;8788;-78
2023/05/27 10:44:39;;;;;;;;;9.75;8.25;;;;;;;;5046323;28;8811;-78
2023/05/27 10:47:13;;;;;;;;;10.00;9.75;;;;;;;;5030682;28;8827;-79
2023/05/27 10:49:39;;;;;;;;;11.50;9.50;;;;;;;;5030392;28;8795;-78
2023/05/27 10:52:15;;;;;;;;;10.00;8.75;;;;;;;;5029425;28;8812;-79
2023/05/27 10:54:47;;;;;;;;;8.75;8.25;;;;;;;;5029694;28;8954;-78
2023/05/27 10:57:12;;;;;;;;;9.50;8.00;;;;;;;;5030658;28;8807;-79
2023/05/27 10:59:52;;;;;;;;;12.67;10.33;;;;;;;;5029302;28;8804;-78
2023/05/27 11:02:18;;;;;;;;;13.00;10.00;;;;;;;;5030327;28;8838;-78
2023/05/27 11:04:43;;;;;;;;;12.33;10.67;;;;;;;;5030570;28;8796;-78
2023/05/27 11:07:08;;;;;;;;;8.00;8.00;;;;;;;;5030310;28;8832;-78
2023/05/27 11:09:47;;;;;;;;;9.00;9.00;;;;;;;;5030653;28;8819;-78
2023/05/27 11:12:22;;;;;;;;;8.50;8.00;;;;;;;;5030554;28;9535;-78
2023/05/27 11:14:52;;;;;;;;;10.00;8.75;;;;;;;;5030477;28;8926;-78
2023/05/27 11:17:18;;;;;;;;;9.75;9.75;;;;;;;;5029061;28;8839;-77
2023/05/27 11:19:45;;;;;;;;;12.00;9.00;;;;;;;;5030506;28;8835;-79
2023/05/27 11:22:11;;;;;;;;;8.75;8.75;;;;;;;;5030653;28;8795;-78
2023/05/27 11:24:39;;;;;;;;;12.67;12.00;;;;;;;;5030009;28;8812;-78
2023/05/27 11:27:11;;;;;;;;;7.75;7.00;;;;;;;;5030295;28;9028;-78
2023/05/27 11:29:36;;;;;;;;;10.25;8.00;;;;;;;;5030384;28;8780;-78
2023/05/27 11:32:02;;;;;;;;;8.00;7.00;;;;;;;;5030278;28;8877;-78
2023/05/27 11:34:28;;;;;;;;;9.00;9.00;;;;;;;;5029123;28;8819;-78
2023/05/27 11:36:53;;;;;;;;;8.00;8.00;;;;;;;;5030375;28;8807;-78
2023/05/27 11:39:18;;;;;;;;;12.00;11.00;;;;;;;;5030327;28;9570;-78
2023/05/27 11:41:50;;;;;;;;;9.00;9.00;;;;;;;;5030255;28;8873;-78
2023/05/27 11:44:16;;;;;;;;;13.25;9.50;;;;;;;;5030172;28;8825;-78
2023/05/27 11:46:43;;;;;;;;;6.67;6.67;;;;;;;;5029921;28;8836;-78
2023/05/27 11:49:10;;;;;;;;;14.75;12.50;;;;;;;;5030461;28;8800;-78
2023/05/27 11:51:39;;;;;;;;;13.00;12.25;;;;;;;;5030190;28;8791;-78
2023/05/27 11:54:04;;;;;;;;;10.25;10.00;;;;;;;;5033361;28;8768;-78
2023/05/27 11:56:30;;;;;;;;;11.00;9.33;;;;;;;;5033831;28;8829;-78
2023/05/27 11:58:56;;;;;;;;;10.33;9.00;;;;;;;;5033808;28;8784;-78
2023/05/27 12:01:21;;;;;;;;;10.00;9.00;;;;;;;;5033749;28;8796;-78
2023/05/27 12:03:46;;;;;;;;;13.00;10.67;;;;;;;;5033510;28;8804;-78
2023/05/27 12:06:12;;;;;;;;;11.33;10.67;;;;;;;;5033611;28;8858;-78
2023/05/27 12:08:38;;;;;;;;;14.33;12.67;;;;;;;;5032480;28;8828;-78
2023/05/27 12:11:03;;;;;;;;;14.33;11.67;;;;;;;;5033653;28;8792;-79
2023/05/27 12:13:29;;;;;;;;;12.00;9.00;;;;;;;;5034178;28;8803;-79
2023/05/27 12:15:55;;;;;;;;;14.00;12.67;;;;;;;;5034154;28;8850;-79
2023/05/27 12:18:20;;;;;;;;;11.00;9.00;;;;;;;;5033612;28;8788;-79
2023/05/27 12:20:46;;;;;;;;;11.33;8.67;;;;;;;;5033505;28;8799;-79
2023/05/27 12:23:11;;;;;;;;;9.00;8.00;;;;;;;;5033422;28;8811;-79
2023/05/27 12:25:36;;;;;;;;;10.33;8.00;;;;;;;;5048831;28;8803;-78
2023/05/27 12:28:02;;;;;;;;;8.67;8.00;;;;;;;;5033805;28;9530;-78
2023/05/27 12:30:27;;;;;;;;;10.67;9.00;;;;;;;;5033684;28;8812;-79
2023/05/27 12:32:54;;;;;;;;;11.00;9.00;;;;;;;;5031829;28;8820;-79
2023/05/27 12:35:19;;;;;;;;;12.50;9.75;;;;;;;;5033249;28;8804;-79
2023/05/27 12:37:45;;;;;;;;;10.33;8.00;;;;;;;;5033251;28;8931;-79
2023/05/27 12:40:14;;;;;;;;;9.00;8.00;;;;;;;;5032662;28;8827;-79
2023/05/27 12:42:39;;;;;;;;;11.50;11.50;;;;;;;;5033732;28;8826;-78
2023/05/27 12:45:05;;;;;;;;;9.00;9.00;;;;;;;;5033434;28;9530;-77
2023/05/27 12:47:30;;;;;;;;;12.67;11.00;;;;;;;;5032711;28;8808;-77
2023/05/27 12:49:55;;;;;;;;;9.00;8.00;;;;;;;;5032909;28;8823;-79
2023/05/27 12:52:21;;;;;;;;;8.00;8.00;;;;;;;;5032875;28;8833;-78
2023/05/27 12:54:46;;;;;;;;;6.00;6.00;;;;;;;;5032828;28;8796;-77
2023/05/27 12:57:12;;;;;;;;;7.00;7.00;;;;;;;;5032999;28;8838;-77
2023/05/27 12:59:37;;;;;;;;;8.00;7.33;;;;;;;;5032357;28;8804;-76
2023/05/27 13:02:02;;;;;;;;;11.00;8.33;;;;;;;;5032427;28;9561;-77
2023/05/27 13:04:27;;;;;;;;;11.00;8.00;;;;;;;;5032559;28;8780;-77
2023/05/27 13:06:53;;;;;;;;;11.00;7.00;;;;;;;;5032865;28;8910;-78
2023/05/27 13:09:18;;;;;;;;;9.00;7.33;;;;;;;;5032422;28;8915;-78
2023/05/27 13:11:44;;;;;;;;;9.00;8.67;;;;;;;;5032649;28;8907;-79
2023/05/27 13:14:09;;;;;;;;;7.67;7.00;;;;;;;;5032629;28;8784;-77
2023/05/27 13:16:34;;;;;;;;;11.33;11.33;;;;;;;;5032002;28;8795;-77
2023/05/27 13:19:00;;;;;;;;;8.00;8.00;;;;;;;;5032334;28;9542;-76
2023/05/27 13:21:25;;;;;;;;;14.00;11.00;;;;;;;;5032342;28;8864;-76
2023/05/27 13:23:52;;;;;;;;;11.33;10.33;;;;;;;;5032245;28;8799;-78
2023/05/27 13:26:17;;;;;;;;;11.25;10.50;;;;;;;;5032252;28;8835;-77
2023/05/27 13:28:42;;;;;;;;;11.33;10.67;;;;;;;;5032189;28;8881;-79
2023/05/27 13:31:08;;;;;;;;;13.33;9.00;;;;;;;;5032055;28;8804;-79
2023/05/27 13:33:33;;;;;;;;;9.00;9.00;;;;;;;;5031542;28;8796;-77
2023/05/27 13:35:59;;;;;;;;;8.00;8.00;;;;;;;;5032151;28;8930;-77
2023/05/27 13:38:24;;;;;;;;;11.00;9.67;;;;;;;;5030618;28;8944;-77
2023/05/27 13:40:49;;;;;;;;;11.33;7.33;;;;;;;;5031854;28;8792;-77
2023/05/27 13:43:16;;;;;;;;;11.67;9.00;;;;;;;;5031870;28;8834;-77
2023/05/27 13:45:41;;;;;;;;;11.25;10.25;;;;;;;;5031879;28;8928;-77
2023/05/27 13:48:06;;;;;;;;;10.67;9.67;;;;;;;;5031733;28;8791;-79
2023/05/27 13:50:32;;;;;;;;;11.00;11.00;;;;;;;;5031786;28;8795;-78
2023/05/27 13:52:57;;;;;;;;;9.75;8.25;;;;;;;;5031248;28;8824;-77
2023/05/27 13:55:23;;;;;;;;;16.33;11.00;;;;;;;;5031583;28;9620;-77
2023/05/27 13:57:48;;;;;;;;;13.00;11.00;;;;;;;;5027209;28;8834;-82
2023/05/27 14:00:15;;;;;;;;;9.67;8.67;;;;;;;;5011960;28;8782;-81
2023/05/27 14:02:40;;;;;;;;;11.00;11.00;;;;;;;;5011538;28;8805;-81
2023/05/27 14:05:06;;;;;;;;;8.67;8.67;;;;;;;;5011654;28;8798;-78
2023/05/27 14:07:31;;;;;;;;;9.33;9.33;;;;;;;;5012093;28;8838;-75
2023/05/27 14:09:57;;;;;;;;;12.00;11.00;;;;;;;;5011159;28;8883;-76
2023/05/27 14:12:22;;;;;;;;;12.00;8.00;;;;;;;;5026744;28;9587;-77
2023/05/27 14:14:47;;;;;;;;;9.67;9.67;;;;;;;;5011796;28;8875;-75
2023/05/27 14:17:13;;;;;;;;;9.00;7.33;;;;;;;;5010963;28;8812;-75
2023/05/27 14:19:38;;;;;;;;;10.67;8.00;;;;;;;;5035868;28;8878;-76
2023/05/27 14:22:03;;;;;;;;;13.00;10.00;;;;;;;;5041699;28;8832;-75
2023/05/27 14:24:29;;;;;;;;;13.33;9.67;;;;;;;;5041849;28;8835;-76
2023/05/27 14:26:55;;;;;;;;;10.00;10.00;;;;;;;;5040984;28;8855;-77
2023/05/27 14:29:21;;;;;;;;;8.75;8.75;;;;;;;;5052117;28;8769;-79
2023/05/27 14:31:46;;;;;;;;;9.33;9.33;;;;;;;;5050430;28;8793;-84
2023/05/27 14:34:11;;;;;;;;;11.00;9.00;;;;;;;;5029632;28;8842;-80
2023/05/27 14:36:37;;;;;;;;;8.67;8.67;;;;;;;;5031110;28;8808;-79
2023/05/27 14:39:05;;;;;;;;;13.33;9.00;;;;;;;;5031081;28;8840;-78
2023/05/27 14:41:31;;;;;;;;;11.50;11.50;;;;;;;;5030518;28;8914;-78
2023/05/27 14:43:56;;;;;;;;;11.00;9.33;;;;;;;;5030957;28;8895;-85
2023/05/27 14:46:21;;;;;;;;;11.67;8.00;;;;;;;;5030838;28;8826;-85
2023/05/27 14:48:46;;;;;;;;;12.67;8.00;;;;;;;;5034738;28;9640;-87
2023/05/27 14:51:12;;;;;;;;;11.00;11.00;;;;;;;;5029329;28;8881;-87
2023/05/27 14:53:37;;;;;;;;;11.00;10.00;;;;;;;;5029023;28;8788;-85
2023/05/27 14:56:02;;;;;;;;;14.00;12.33;;;;;;;;5028161;28;8815;-77
2023/05/27 14:58:27;;;;;;;;;15.00;11.00;;;;;;;;5028977;28;8834;-79
2023/05/27 15:00:53;;;;;;;;;7.00;7.00;;;;;;;;5028558;28;8880;-78
2023/05/27 15:03:18;;;;;;;;;8.00;5.00;;;;;;;;5028879;28;8792;-79
2023/05/27 15:05:43;;;;;;;;;8.00;7.67;;;;;;;;5028723;28;8961;-79
2023/05/27 15:08:14;;;;;;;;;8.00;8.00;;;;;;;;5028781;28;8772;-77
2023/05/27 15:10:40;;;;;;;;;10.75;10.75;;;;;;;;5028840;28;8795;-78
2023/05/27 15:13:05;;;;;;;;;11.33;10.00;;;;;;;;5028824;28;8802;-79
2023/05/27 15:15:30;;;;;;;;;13.00;11.00;;;;;;;;5028670;28;8807;-80
2023/05/27 15:17:56;;;;;;;;;13.00;13.00;;;;;;;;5028200;28;8788;-80
2023/05/27 15:20:21;;;;;;;;;13.33;10.67;;;;;;;;5028814;28;8838;-80
2023/05/27 15:22:46;;;;;;;;;8.33;8.33;;;;;;;;5026660;28;8818;-81
2023/05/27 15:25:11;;;;;;;;;12.67;10.33;;;;;;;;5028697;28;8800;-81
2023/05/27 15:27:37;;;;;;;;;11.33;9.00;;;;;;;;5029746;28;8878;-80
2023/05/27 15:30:04;;;;;;;;;9.67;8.67;;;;;;;;5032831;28;9966;-81
2023/05/27 15:32:29;;;;;;;;;11.75;11.25;;;;;;;;5039751;28;8809;-81
2023/05/27 15:34:54;;;;;;;;;11.00;9.33;;;;;;;;5053874;28;8828;-80
2023/05/27 15:37:19;;;;;;;;;11.33;9.67;;;;;;;;5036256;28;8821;-79
2023/05/27 15:39:45;;;;;;;;;12.67;10.67;;;;;;;;5052666;28;8809;-80
2023/05/27 15:42:10;;;;;;;;;9.67;9.00;;;;;;;;5052656;28;9615;-81
2023/05/27 15:44:35;;;;;;;;;11.00;9.67;;;;;;;;5053928;28;8885;-81
2023/05/27 15:47:00;;;;;;;;;12.33;12.00;;;;;;;;5052143;28;8817;-81
2023/05/27 15:49:26;;;;;;;;;10.00;10.00;;;;;;;;5053809;28;8839;-80
2023/05/27 15:51:51;;;;;;;;;10.33;10.33;;;;;;;;5053024;28;8821;-80
2023/05/27 15:54:16;;;;;;;;;9.67;9.00;;;;;;;;5053821;28;8795;-79
2023/05/27 15:56:44;;;;;;;;;11.67;11.33;;;;;;;;5052387;28;8898;-77
2023/05/27 15:59:09;;;;;;;;;13.25;10.50;;;;;;;;5035344;28;8835;-77
2023/05/27 16:01:35;;;;;;;;;12.00;11.00;;;;;;;;5033327;28;8803;-77
2023/05/27 16:04:01;;;;;;;;;10.25;9.00;;;;;;;;5033599;28;8799;-77
2023/05/27 16:06:27;;;;;;;;;13.00;12.00;;;;;;;;5033707;28;8827;-83
2023/05/27 16:08:53;;;;;;;;;12.00;12.00;;;;;;;;5032152;28;8823;-87
2023/05/27 16:11:19;;;;;;;;;13.25;12.75;;;;;;;;5048802;28;8829;-91
2023/05/27 16:13:44;;;;;;;;;12.00;12.00;;;;;;;;5052012;28;8823;-87
2023/05/27 16:16:09;;;;;;;;;11.50;11.00;;;;;;;;5051737;28;8854;-82
2023/05/27 16:18:35;;;;;;;;;13.67;12.00;;;;;;;;5051338;28;9552;-82
2023/05/27 16:21:00;;;;;;;;;14.67;12.67;;;;;;;;5051268;28;8816;-77
2023/05/27 16:23:25;;;;;;;;;13.67;11.33;;;;;;;;5049291;28;8828;-77
2023/05/27 16:25:52;;;;;;;;;11.33;10.33;;;;;;;;5027681;28;8837;-76
2023/05/27 16:28:21;;;;;;;;;11.75;11.00;;;;;;;;5032558;28;8847;-81
2023/05/27 16:30:47;;;;;;;;;13.75;13.75;;;;;;;;5033671;28;8886;-79
2023/05/27 16:33:12;;;;;;;;;12.67;12.67;;;;;;;;5033617;28;8808;-79
2023/05/27 16:35:38;;;;;;;;;14.00;12.00;;;;;;;;5031221;28;8829;-82
2023/05/27 16:38:03;;;;;;;;;12.00;12.00;;;;;;;;5032977;28;8777;-78
2023/05/27 16:40:28;;;;;;;;;10.67;10.33;;;;;;;;5033259;28;8804;-76
2023/05/27 16:42:53;;;;;;;;;15.00;13.00;;;;;;;;5033272;28;8783;-80
2023/05/27 16:45:19;;;;;;;;;16.00;13.00;;;;;;;;5031002;28;8792;-77
2023/05/27 16:47:44;;;;;;;;;14.67;14.00;;;;;;;;5033018;28;8855;-77
2023/05/27 16:50:11;;;;;;;;;14.00;13.00;;;;;;;;5032908;28;8796;-76
2023/05/27 16:52:36;;;;;;;;;13.75;13.75;;;;;;;;5035743;28;8832;-80
2023/05/27 16:55:02;;;;;;;;;14.00;12.67;;;;;;;;5029477;28;8841;-81
2023/05/27 16:57:27;;;;;;;;;15.33;14.00;;;;;;;;5031648;28;8839;-80
2023/05/27 16:59:52;;;;;;;;;13.00;12.00;;;;;;;;5031549;28;8818;-81
2023/05/27 17:02:17;;;;;;;;;11.00;11.00;;;;;;;;5031375;28;8820;-80
2023/05/27 17:04:44;;;;;;;;;14.67;13.00;;;;;;;;5029247;28;8914;-80
2023/05/27 17:07:10;;;;;;;;;14.25;13.00;;;;;;;;5031206;28;8836;-80
2023/05/27 17:09:35;;;;;;;;;13.00;12.33;;;;;;;;5027580;28;8818;-78
2023/05/27 17:12:01;;;;;;;;;13.67;12.33;;;;;;;;5031035;28;8904;-79
2023/05/27 17:14:26;;;;;;;;;13.67;12.00;;;;;;;;5027599;28;8816;-77
2023/05/27 17:16:51;;;;;;;;;12.33;11.00;;;;;;;;5024251;28;8816;-78
2023/05/27 17:19:17;;;;;;;;;13.33;11.67;;;;;;;;5030478;28;8796;-78
2023/05/27 17:21:42;;;;;;;;;11.67;11.67;;;;;;;;5030902;28;9551;-77
2023/05/27 17:24:08;;;;;;;;;10.67;10.33;;;;;;;;5039325;28;11495;-78
2023/05/27 17:26:33;;;;;;;;;12.00;11.67;;;;;;;;5031960;28;8850;-78
2023/05/27 17:28:58;;;;;;;;;13.00;13.00;;;;;;;;5032045;28;8907;-74
2023/05/27 17:31:24;;;;;;;;;13.33;12.67;;;;;;;;5032225;28;8830;-77
2023/05/27 17:33:49;;;;;;;;;11.67;11.33;;;;;;;;5030048;28;8807;-76
2023/05/27 17:36:14;;;;;;;;;10.00;10.00;;;;;;;;5031586;28;8796;-77
2023/05/27 17:38:40;;;;;;;;;13.00;13.00;;;;;;;;5031997;28;8796;-77
2023/05/27 17:41:07;;;;;;;;;13.67;12.67;;;;;;;;5031913;28;8791;-77
2023/05/27 17:43:32;;;;;;;;;15.00;11.67;;;;;;;;5030923;28;8792;-75
2023/05/27 17:45:58;;;;;;;;;12.00;12.00;;;;;;;;5028577;28;9198;-76
2023/05/27 17:48:23;;;;;;;;;12.00;12.00;;;;;;;;5031159;28;8803;-75
2023/05/27 17:50:48;;;;;;;;;10.00;10.00;;;;;;;;5031529;28;8816;-73
2023/05/27 17:53:14;;;;;;;;;12.33;11.33;;;;;;;;5029716;28;8808;-76
2023/05/27 17:55:39;;;;;;;;;13.00;12.00;;;;;;;;5027667;28;8901;-76
2023/05/27 17:58:04;;;;;;;;;16.67;13.67;;;;;;;;5029952;28;8838;-76
2023/05/27 18:00:30;;;;;;;;;12.00;10.67;;;;;;;;5029677;28;8824;-75
2023/05/27 18:02:56;;;;;;;;;11.33;10.00;;;;;;;;5029437;28;8804;-75
2023/05/27 18:05:21;;;;;;;;;13.33;10.67;;;;;;;;5033549;28;8981;-75
2023/05/27 18:07:46;;;;;;;;;13.00;11.00;;;;;;;;5032949;28;8847;-76
2023/05/27 18:10:13;;;;;;;;;17.00;12.67;;;;;;;;5039094;28;9904;-87
2023/05/27 18:12:39;;;;;;;;;15.33;14.00;;;;;;;;5029846;28;8984;-76
2023/05/27 18:15:04;;;;;;;;;17.33;14.00;;;;;;;;5028731;28;9219;-75
2023/05/27 18:17:29;;;;;;;;;11.67;11.33;;;;;;;;5045108;28;8809;-75
2023/05/27 18:19:55;;;;;;;;;13.67;13.00;;;;;;;;5049456;28;8931;-75
2023/05/27 18:22:20;;;;;;;;;14.67;13.00;;;;;;;;5050941;28;8902;-80
2023/05/27 18:24:45;;;;;;;;;12.00;12.00;;;;;;;;5038529;28;8815;-79
2023/05/27 18:27:10;;;;;;;;;11.00;11.00;;;;;;;;5030574;28;9664;-76
2023/05/27 18:29:36;;;;;;;;;16.00;13.67;;;;;;;;5031058;28;8804;-78
2023/05/27 18:32:01;;;;;;;;;15.67;11.00;;;;;;;;5030569;28;8893;-76
2023/05/27 18:34:26;;;;;;;;;12.00;12.00;;;;;;;;5028623;28;9657;-77
2023/05/27 18:36:52;;;;;;;;;16.67;15.67;;;;;;;;5031442;28;8807;-78
2023/05/27 18:39:17;;;;;;;;;15.67;13.00;;;;;;;;5030960;28;8946;-76
2023/05/27 18:41:43;;;;;;;;;15.33;13.00;;;;;;;;5031119;28;8784;-75
2023/05/27 18:44:08;;;;;;;;;17.67;13.67;;;;;;;;5029350;28;8859;-77
2023/05/27 18:46:33;;;;;;;;;12.00;12.00;;;;;;;;5031586;28;8831;-84
2023/05/27 18:48:58;;;;;;;;;11.67;11.00;;;;;;;;5036260;28;8872;-83
2023/05/27 18:51:24;;;;;;;;;11.00;11.00;;;;;;;;5032946;28;9644;-78
2023/05/27 18:53:49;;;;;;;;;12.00;10.00;;;;;;;;5037992;28;10182;-77
2023/05/27 18:56:15;;;;;;;;;8.67;8.67;;;;;;;;5036038;28;8827;-78
2023/05/27 18:58:40;;;;;;;;;12.00;12.00;;;;;;;;5034179;28;8862;-78
2023/05/27 19:01:05;;;;;;;;;14.33;13.00;;;;;;;;5028995;28;8818;-78
2023/05/27 19:03:31;;;;;;;;;16.67;14.33;;;;;;;;5028426;28;9607;-79
2023/05/27 19:05:56;;;;;;;;;10.67;9.33;;;;;;;;5027243;28;8860;-78
2023/05/27 19:08:21;;;;;;;;;10.00;10.00;;;;;;;;5029080;28;8800;-79
2023/05/27 19:10:47;;;;;;;;;8.33;5.67;;;;;;;;5043285;28;8906;-78
2023/05/27 19:13:12;;;;;;;;;12.00;11.00;;;;;;;;5050246;28;8805;-79
2023/05/27 19:15:37;;;;;;;;;10.00;10.00;;;;;;;;5029254;28;8925;-73
2023/05/27 19:18:03;;;;;;;;;16.33;13.33;;;;;;;;5030107;28;8827;-80
2023/05/27 19:20:29;;;;;;;;;10.00;8.67;;;;;;;;5034756;28;8797;-76
2023/05/27 19:22:54;;;;;;;;;10.33;9.67;;;;;;;;5050072;28;9981;-75
2023/05/27 19:25:19;;;;;;;;;12.00;9.67;;;;;;;;5033069;28;8932;-75
2023/05/27 19:27:45;;;;;;;;;10.00;10.00;;;;;;;;5030195;28;9566;-80
2023/05/27 19:30:10;;;;;;;;;11.00;10.00;;;;;;;;5028651;28;8828;-79
2023/05/27 19:32:35;;;;;;;;;11.00;9.00;;;;;;;;5030062;28;9519;-77
2023/05/27 19:35:01;;;;;;;;;9.67;9.00;;;;;;;;5028055;28;8825;-77
2023/05/27 19:37:26;;;;;;;;;9.00;9.00;;;;;;;;5030252;28;8829;-82
2023/05/27 19:39:53;;;;;;;;;10.50;10.50;;;;;;;;5028851;28;8817;-78
2023/05/27 19:42:18;;;;;;;;;11.67;9.00;;;;;;;;5030170;28;8836;-79
2023/05/27 19:44:43;;;;;;;;;12.00;10.00;;;;;;;;5027778;28;9248;-81
2023/05/27 19:47:09;;;;;;;;;11.00;11.00;;;;;;;;5029876;28;8950;-78